sensor_id;sensor_type;location;lat;lon;timestamp;P1;durP1;ratioP1;P2;durP2;ratioP2
23119;SDS011;11729;50.836;4.330;2023-07-20T00:01:25;8.65;;;6.18;;
23119;SDS011;11729;50.836;4.330;2023-07-20T00:03:50;14.73;;;6.43;;
23119;SDS011;11729;50.836;4.330;2023-07-20T00:06:22;12.90;;;5.75;;
23119;SDS011;11729;50.836;4.330;2023-07-20T00:08:49;11.32;;;5.80;;
23119;SDS011;11729;50.836;4.330;2023-07-20T00:11:16;8.40;;;5.25;;
23119;SDS011;11729;50.836;4.330;2023-07-20T00:13:41;13.10;;;5.90;;
23119;SDS011;11729;50.836;4.330;2023-07-20T00:16:07;9.48;;;6.00;;
23119;SDS011;11729;50.836;4.330;2023-07-20T00:18:33;9.75;;;6.10;;
23119;SDS011;11729;50.836;4.330;2023-07-20T00:20:58;8.52;;;6.00;;
23119;SDS011;11729;50.836;4.330;2023-07-20T00:23:27;7.63;;;6.22;;
23119;SDS011;11729;50.836;4.330;2023-07-20T00:25:53;11.40;;;6.25;;
23119;SDS011;11729;50.836;4.330;2023-07-20T00:28:19;13.40;;;6.72;;
23119;SDS011;11729;50.836;4.330;2023-07-20T00:30:45;8.40;;;6.03;;
23119;SDS011;11729;50.836;4.330;2023-07-20T00:33:11;8.70;;;5.75;;
23119;SDS011;11729;50.836;4.330;2023-07-20T00:35:37;11.77;;;5.80;;
23119;SDS011;11729;50.836;4.330;2023-07-20T00:38:04;9.35;;;6.03;;
23119;SDS011;11729;50.836;4.330;2023-07-20T00:40:36;9.30;;;5.95;;
23119;SDS011;11729;50.836;4.330;2023-07-20T00:43:02;8.10;;;5.93;;
23119;SDS011;11729;50.836;4.330;2023-07-20T00:45:29;11.35;;;6.30;;
23119;SDS011;11729;50.836;4.330;2023-07-20T00:47:55;9.02;;;6.32;;
23119;SDS011;11729;50.836;4.330;2023-07-20T00:50:22;8.13;;;6.40;;
23119;SDS011;11729;50.836;4.330;2023-07-20T00:52:49;11.85;;;6.32;;
23119;SDS011;11729;50.836;4.330;2023-07-20T00:55:14;11.48;;;6.40;;
23119;SDS011;11729;50.836;4.330;2023-07-20T00:57:40;8.50;;;6.13;;
23119;SDS011;11729;50.836;4.330;2023-07-20T01:00:06;7.07;;;6.32;;
23119;SDS011;11729;50.836;4.330;2023-07-20T01:02:32;12.93;;;5.68;;
23119;SDS011;11729;50.836;4.330;2023-07-20T01:04:58;12.20;;;7.00;;
23119;SDS011;11729;50.836;4.330;2023-07-20T01:07:28;9.93;;;6.68;;
23119;SDS011;11729;50.836;4.330;2023-07-20T01:12:33;12.07;;;6.10;;
23119;SDS011;11729;50.836;4.330;2023-07-20T01:15:06;11.80;;;6.32;;
23119;SDS011;11729;50.836;4.330;2023-07-20T01:17:33;13.40;;;6.57;;
23119;SDS011;11729;50.836;4.330;2023-07-20T01:19:59;12.10;;;6.00;;
23119;SDS011;11729;50.836;4.330;2023-07-20T01:30:46;8.32;;;6.68;;
23119;SDS011;11729;50.836;4.330;2023-07-20T01:33:16;15.00;;;6.57;;
23119;SDS011;11729;50.836;4.330;2023-07-20T01:35:44;9.85;;;6.55;;
23119;SDS011;11729;50.836;4.330;2023-07-20T01:38:14;14.10;;;7.20;;
23119;SDS011;11729;50.836;4.330;2023-07-20T01:40:41;10.45;;;6.57;;
23119;SDS011;11729;50.836;4.330;2023-07-20T01:43:07;8.50;;;6.38;;
23119;SDS011;11729;50.836;4.330;2023-07-20T01:45:33;14.07;;;7.00;;
23119;SDS011;11729;50.836;4.330;2023-07-20T01:47:58;11.02;;;6.75;;
23119;SDS011;11729;50.836;4.330;2023-07-20T01:50:24;12.98;;;7.32;;
23119;SDS011;11729;50.836;4.330;2023-07-20T01:52:50;10.32;;;7.13;;
23119;SDS011;11729;50.836;4.330;2023-07-20T01:55:15;17.45;;;7.75;;
23119;SDS011;11729;50.836;4.330;2023-07-20T01:57:41;12.13;;;7.20;;
23119;SDS011;11729;50.836;4.330;2023-07-20T02:00:07;13.68;;;7.43;;
23119;SDS011;11729;50.836;4.330;2023-07-20T02:02:34;14.05;;;7.78;;
23119;SDS011;11729;50.836;4.330;2023-07-20T02:05:00;9.63;;;7.45;;
23119;SDS011;11729;50.836;4.330;2023-07-20T02:07:26;14.73;;;7.72;;
23119;SDS011;11729;50.836;4.330;2023-07-20T02:09:52;12.45;;;6.72;;
23119;SDS011;11729;50.836;4.330;2023-07-20T02:12:18;14.77;;;7.15;;
23119;SDS011;11729;50.836;4.330;2023-07-20T02:14:43;17.10;;;7.78;;
23119;SDS011;11729;50.836;4.330;2023-07-20T02:17:09;11.43;;;7.38;;
23119;SDS011;11729;50.836;4.330;2023-07-20T02:19:36;13.30;;;7.97;;
23119;SDS011;11729;50.836;4.330;2023-07-20T02:22:02;12.38;;;7.38;;
23119;SDS011;11729;50.836;4.330;2023-07-20T02:24:28;17.67;;;7.63;;
23119;SDS011;11729;50.836;4.330;2023-07-20T02:26:53;15.88;;;8.32;;
23119;SDS011;11729;50.836;4.330;2023-07-20T02:29:19;15.40;;;8.45;;
23119;SDS011;11729;50.836;4.330;2023-07-20T02:31:45;13.05;;;8.52;;
23119;SDS011;11729;50.836;4.330;2023-07-20T02:34:10;19.85;;;8.48;;
23119;SDS011;11729;50.836;4.330;2023-07-20T02:36:36;14.10;;;8.85;;
23119;SDS011;11729;50.836;4.330;2023-07-20T02:39:02;13.05;;;8.23;;
23119;SDS011;11729;50.836;4.330;2023-07-20T02:41:29;14.45;;;9.30;;
23119;SDS011;11729;50.836;4.330;2023-07-20T02:43:58;12.57;;;8.38;;
23119;SDS011;11729;50.836;4.330;2023-07-20T02:46:24;22.13;;;9.82;;
23119;SDS011;11729;50.836;4.330;2023-07-20T02:48:50;19.83;;;9.60;;
23119;SDS011;11729;50.836;4.330;2023-07-20T02:51:15;18.55;;;9.55;;
23119;SDS011;11729;50.836;4.330;2023-07-20T02:53:41;16.83;;;9.48;;
23119;SDS011;11729;50.836;4.330;2023-07-20T02:56:06;19.05;;;9.50;;
23119;SDS011;11729;50.836;4.330;2023-07-20T02:58:33;18.30;;;10.55;;
23119;SDS011;11729;50.836;4.330;2023-07-20T03:01:03;17.67;;;10.13;;
23119;SDS011;11729;50.836;4.330;2023-07-20T03:03:29;17.45;;;10.50;;
23119;SDS011;11729;50.836;4.330;2023-07-20T03:05:55;17.63;;;10.95;;
23119;SDS011;11729;50.836;4.330;2023-07-20T03:08:24;23.35;;;10.60;;
23119;SDS011;11729;50.836;4.330;2023-07-20T03:10:49;19.08;;;10.45;;
23119;SDS011;11729;50.836;4.330;2023-07-20T03:13:15;21.27;;;10.95;;
23119;SDS011;11729;50.836;4.330;2023-07-20T03:15:41;22.05;;;10.77;;
23119;SDS011;11729;50.836;4.330;2023-07-20T03:18:06;16.92;;;11.10;;
23119;SDS011;11729;50.836;4.330;2023-07-20T03:20:32;22.42;;;10.35;;
23119;SDS011;11729;50.836;4.330;2023-07-20T03:23:00;17.67;;;11.05;;
23119;SDS011;11729;50.836;4.330;2023-07-20T03:25:25;25.15;;;10.52;;
23119;SDS011;11729;50.836;4.330;2023-07-20T03:27:51;18.38;;;11.07;;
23119;SDS011;11729;50.836;4.330;2023-07-20T03:30:17;22.60;;;11.73;;
23119;SDS011;11729;50.836;4.330;2023-07-20T03:32:42;24.50;;;12.00;;
23119;SDS011;11729;50.836;4.330;2023-07-20T03:35:08;22.33;;;12.35;;
23119;SDS011;11729;50.836;4.330;2023-07-20T03:37:34;20.10;;;12.00;;
23119;SDS011;11729;50.836;4.330;2023-07-20T03:40:01;21.83;;;12.27;;
23119;SDS011;11729;50.836;4.330;2023-07-20T03:42:28;22.33;;;13.07;;
23119;SDS011;11729;50.836;4.330;2023-07-20T03:44:53;19.02;;;12.00;;
23119;SDS011;11729;50.836;4.330;2023-07-20T03:47:19;29.20;;;13.88;;
23119;SDS011;11729;50.836;4.330;2023-07-20T03:49:45;19.05;;;12.95;;
23119;SDS011;11729;50.836;4.330;2023-07-20T03:52:10;23.23;;;12.77;;
23119;SDS011;11729;50.836;4.330;2023-07-20T03:54:36;24.63;;;13.23;;
23119;SDS011;11729;50.836;4.330;2023-07-20T03:57:02;17.65;;;12.77;;
23119;SDS011;11729;50.836;4.330;2023-07-20T03:59:28;27.95;;;13.60;;
23119;SDS011;11729;50.836;4.330;2023-07-20T04:01:54;24.33;;;14.02;;
23119;SDS011;11729;50.836;4.330;2023-07-20T04:04:20;20.73;;;13.57;;
23119;SDS011;11729;50.836;4.330;2023-07-20T04:06:45;22.60;;;13.38;;
23119;SDS011;11729;50.836;4.330;2023-07-20T04:09:11;23.00;;;13.13;;
23119;SDS011;11729;50.836;4.330;2023-07-20T04:11:37;22.27;;;14.02;;
23119;SDS011;11729;50.836;4.330;2023-07-20T04:14:03;24.20;;;14.05;;
23119;SDS011;11729;50.836;4.330;2023-07-20T04:16:29;21.25;;;14.15;;
23119;SDS011;11729;50.836;4.330;2023-07-20T04:18:55;23.50;;;14.48;;
23119;SDS011;11729;50.836;4.330;2023-07-20T04:21:21;21.95;;;14.70;;
23119;SDS011;11729;50.836;4.330;2023-07-20T04:23:47;23.90;;;14.35;;
23119;SDS011;11729;50.836;4.330;2023-07-20T04:26:13;22.38;;;13.95;;
23119;SDS011;11729;50.836;4.330;2023-07-20T04:28:39;22.67;;;13.90;;
23119;SDS011;11729;50.836;4.330;2023-07-20T04:31:13;24.55;;;13.90;;
23119;SDS011;11729;50.836;4.330;2023-07-20T04:33:40;25.00;;;15.50;;
23119;SDS011;11729;50.836;4.330;2023-07-20T04:36:05;24.65;;;14.63;;
23119;SDS011;11729;50.836;4.330;2023-07-20T04:38:32;19.75;;;13.77;;
23119;SDS011;11729;50.836;4.330;2023-07-20T04:40:58;21.70;;;13.90;;
23119;SDS011;11729;50.836;4.330;2023-07-20T04:43:24;22.15;;;13.60;;
23119;SDS011;11729;50.836;4.330;2023-07-20T04:45:49;25.92;;;15.15;;
23119;SDS011;11729;50.836;4.330;2023-07-20T04:48:16;24.42;;;13.70;;
23119;SDS011;11729;50.836;4.330;2023-07-20T04:50:44;25.33;;;14.70;;
23119;SDS011;11729;50.836;4.330;2023-07-20T04:55:39;21.60;;;14.70;;
23119;SDS011;11729;50.836;4.330;2023-07-20T04:58:05;26.83;;;14.57;;
23119;SDS011;11729;50.836;4.330;2023-07-20T05:00:35;24.35;;;14.00;;
23119;SDS011;11729;50.836;4.330;2023-07-20T05:03:03;24.35;;;14.25;;
23119;SDS011;11729;50.836;4.330;2023-07-20T05:05:30;26.35;;;14.50;;
23119;SDS011;11729;50.836;4.330;2023-07-20T05:07:56;22.90;;;14.60;;
23119;SDS011;11729;50.836;4.330;2023-07-20T05:10:23;23.95;;;15.00;;
23119;SDS011;11729;50.836;4.330;2023-07-20T05:12:49;22.08;;;14.05;;
23119;SDS011;11729;50.836;4.330;2023-07-20T05:15:14;22.77;;;14.35;;
23119;SDS011;11729;50.836;4.330;2023-07-20T05:17:40;19.17;;;14.35;;
23119;SDS011;11729;50.836;4.330;2023-07-20T05:20:06;24.77;;;14.27;;
23119;SDS011;11729;50.836;4.330;2023-07-20T05:22:34;18.45;;;13.45;;
23119;SDS011;11729;50.836;4.330;2023-07-20T05:24:59;21.52;;;14.43;;
23119;SDS011;11729;50.836;4.330;2023-07-20T05:27:25;21.23;;;14.52;;
23119;SDS011;11729;50.836;4.330;2023-07-20T05:29:50;18.45;;;13.98;;
23119;SDS011;11729;50.836;4.330;2023-07-20T05:32:17;21.90;;;15.00;;
23119;SDS011;11729;50.836;4.330;2023-07-20T05:34:43;22.05;;;13.95;;
23119;SDS011;11729;50.836;4.330;2023-07-20T05:37:09;21.02;;;14.02;;
23119;SDS011;11729;50.836;4.330;2023-07-20T05:39:34;22.45;;;14.93;;
23119;SDS011;11729;50.836;4.330;2023-07-20T05:42:00;21.85;;;14.60;;
23119;SDS011;11729;50.836;4.330;2023-07-20T05:44:26;21.02;;;14.27;;
23119;SDS011;11729;50.836;4.330;2023-07-20T05:46:51;18.90;;;13.95;;
23119;SDS011;11729;50.836;4.330;2023-07-20T05:49:17;23.92;;;15.02;;
23119;SDS011;11729;50.836;4.330;2023-07-20T05:51:42;25.05;;;13.98;;
23119;SDS011;11729;50.836;4.330;2023-07-20T05:54:08;26.67;;;14.68;;
23119;SDS011;11729;50.836;4.330;2023-07-20T05:56:34;22.67;;;14.82;;
23119;SDS011;11729;50.836;4.330;2023-07-20T05:59:00;22.95;;;14.90;;
23119;SDS011;11729;50.836;4.330;2023-07-20T06:01:26;22.55;;;14.23;;
23119;SDS011;11729;50.836;4.330;2023-07-20T06:03:53;20.85;;;15.18;;
23119;SDS011;11729;50.836;4.330;2023-07-20T06:06:19;23.90;;;14.57;;
23119;SDS011;11729;50.836;4.330;2023-07-20T06:08:44;21.55;;;14.13;;
23119;SDS011;11729;50.836;4.330;2023-07-20T06:11:10;20.73;;;15.23;;
23119;SDS011;11729;50.836;4.330;2023-07-20T06:13:36;23.20;;;15.35;;
23119;SDS011;11729;50.836;4.330;2023-07-20T06:16:02;17.45;;;14.43;;
23119;SDS011;11729;50.836;4.330;2023-07-20T06:18:28;21.33;;;14.52;;
23119;SDS011;11729;50.836;4.330;2023-07-20T06:20:55;18.98;;;13.18;;
23119;SDS011;11729;50.836;4.330;2023-07-20T06:23:22;17.42;;;13.07;;
23119;SDS011;11729;50.836;4.330;2023-07-20T06:25:48;19.45;;;13.32;;
23119;SDS011;11729;50.836;4.330;2023-07-20T06:28:14;16.90;;;11.95;;
23119;SDS011;11729;50.836;4.330;2023-07-20T06:30:40;17.27;;;11.73;;
23119;SDS011;11729;50.836;4.330;2023-07-20T06:33:06;18.95;;;12.20;;
23119;SDS011;11729;50.836;4.330;2023-07-20T06:35:33;16.75;;;12.27;;
23119;SDS011;11729;50.836;4.330;2023-07-20T06:38:00;17.77;;;12.17;;
23119;SDS011;11729;50.836;4.330;2023-07-20T06:40:25;12.32;;;11.05;;
23119;SDS011;11729;50.836;4.330;2023-07-20T06:42:51;13.05;;;9.98;;
23119;SDS011;11729;50.836;4.330;2023-07-20T06:45:17;13.15;;;10.52;;
23119;SDS011;11729;50.836;4.330;2023-07-20T06:47:43;11.05;;;9.90;;
23119;SDS011;11729;50.836;4.330;2023-07-20T06:50:09;11.45;;;9.73;;
23119;SDS011;11729;50.836;4.330;2023-07-20T06:52:35;13.68;;;10.10;;
23119;SDS011;11729;50.836;4.330;2023-07-20T06:55:01;12.27;;;9.93;;
23119;SDS011;11729;50.836;4.330;2023-07-20T06:57:27;11.70;;;9.40;;
23119;SDS011;11729;50.836;4.330;2023-07-20T06:59:53;13.00;;;9.02;;
23119;SDS011;11729;50.836;4.330;2023-07-20T07:02:19;12.75;;;8.70;;
23119;SDS011;11729;50.836;4.330;2023-07-20T07:04:44;9.38;;;7.68;;
23119;SDS011;11729;50.836;4.330;2023-07-20T07:07:14;8.20;;;7.43;;
23119;SDS011;11729;50.836;4.330;2023-07-20T07:09:41;14.38;;;8.38;;
23119;SDS011;11729;50.836;4.330;2023-07-20T07:12:07;9.18;;;7.97;;
23119;SDS011;11729;50.836;4.330;2023-07-20T07:14:33;8.43;;;6.78;;
23119;SDS011;11729;50.836;4.330;2023-07-20T07:16:59;8.88;;;7.10;;
23119;SDS011;11729;50.836;4.330;2023-07-20T07:19:25;8.80;;;7.35;;
23119;SDS011;11729;50.836;4.330;2023-07-20T07:21:51;8.23;;;7.28;;
23119;SDS011;11729;50.836;4.330;2023-07-20T07:24:16;9.10;;;6.88;;
23119;SDS011;11729;50.836;4.330;2023-07-20T07:26:42;6.30;;;5.70;;
23119;SDS011;11729;50.836;4.330;2023-07-20T07:29:08;6.38;;;5.65;;
23119;SDS011;11729;50.836;4.330;2023-07-20T07:31:34;7.45;;;6.18;;
23119;SDS011;11729;50.836;4.330;2023-07-20T07:34:04;5.97;;;5.40;;
23119;SDS011;11729;50.836;4.330;2023-07-20T07:36:30;5.22;;;4.82;;
23119;SDS011;11729;50.836;4.330;2023-07-20T07:38:56;5.88;;;5.10;;
23119;SDS011;11729;50.836;4.330;2023-07-20T07:41:22;7.57;;;6.10;;
23119;SDS011;11729;50.836;4.330;2023-07-20T07:43:48;8.20;;;5.10;;
23119;SDS011;11729;50.836;4.330;2023-07-20T07:46:13;5.10;;;4.60;;
23119;SDS011;11729;50.836;4.330;2023-07-20T07:48:39;5.55;;;5.07;;
23119;SDS011;11729;50.836;4.330;2023-07-20T07:51:05;5.10;;;4.70;;
23119;SDS011;11729;50.836;4.330;2023-07-20T07:53:31;5.68;;;5.07;;
23119;SDS011;11729;50.836;4.330;2023-07-20T07:55:57;5.30;;;4.90;;
23119;SDS011;11729;50.836;4.330;2023-07-20T07:58:23;5.00;;;4.60;;
23119;SDS011;11729;50.836;4.330;2023-07-20T08:00:49;6.18;;;4.82;;
23119;SDS011;11729;50.836;4.330;2023-07-20T08:03:15;6.50;;;4.65;;
23119;SDS011;11729;50.836;4.330;2023-07-20T08:05:41;4.85;;;4.40;;
23119;SDS011;11729;50.836;4.330;2023-07-20T08:08:07;5.25;;;4.70;;
23119;SDS011;11729;50.836;4.330;2023-07-20T08:10:33;5.37;;;4.67;;
23119;SDS011;11729;50.836;4.330;2023-07-20T08:12:59;5.00;;;4.30;;
23119;SDS011;11729;50.836;4.330;2023-07-20T08:15:25;4.38;;;4.07;;
23119;SDS011;11729;50.836;4.330;2023-07-20T08:17:50;4.85;;;4.32;;
23119;SDS011;11729;50.836;4.330;2023-07-20T08:20:17;4.70;;;4.30;;
23119;SDS011;11729;50.836;4.330;2023-07-20T08:22:43;6.80;;;4.28;;
23119;SDS011;11729;50.836;4.330;2023-07-20T08:25:09;4.97;;;4.25;;
23119;SDS011;11729;50.836;4.330;2023-07-20T08:27:35;5.72;;;3.88;;
23119;SDS011;11729;50.836;4.330;2023-07-20T08:30:01;3.97;;;3.67;;
23119;SDS011;11729;50.836;4.330;2023-07-20T08:32:29;4.28;;;3.88;;
23119;SDS011;11729;50.836;4.330;2023-07-20T08:34:55;5.50;;;4.00;;
23119;SDS011;11729;50.836;4.330;2023-07-20T08:37:20;4.30;;;4.00;;
23119;SDS011;11729;50.836;4.330;2023-07-20T08:39:46;4.20;;;3.85;;
23119;SDS011;11729;50.836;4.330;2023-07-20T08:42:12;4.63;;;4.22;;
23119;SDS011;11729;50.836;4.330;2023-07-20T08:44:40;4.38;;;3.97;;
23119;SDS011;11729;50.836;4.330;2023-07-20T08:47:08;6.32;;;4.35;;
23119;SDS011;11729;50.836;4.330;2023-07-20T08:49:34;4.60;;;4.20;;
23119;SDS011;11729;50.836;4.330;2023-07-20T08:52:02;6.93;;;5.00;;
23119;SDS011;11729;50.836;4.330;2023-07-20T08:54:30;4.95;;;4.20;;
23119;SDS011;11729;50.836;4.330;2023-07-20T08:57:02;6.18;;;4.30;;
23119;SDS011;11729;50.836;4.330;2023-07-20T08:59:29;5.93;;;4.20;;
23119;SDS011;11729;50.836;4.330;2023-07-20T09:01:56;4.78;;;4.22;;
23119;SDS011;11729;50.836;4.330;2023-07-20T09:04:23;4.70;;;4.20;;
23119;SDS011;11729;50.836;4.330;2023-07-20T09:06:49;4.22;;;3.92;;
23119;SDS011;11729;50.836;4.330;2023-07-20T09:09:15;4.20;;;3.90;;
23119;SDS011;11729;50.836;4.330;2023-07-20T09:11:41;4.10;;;3.80;;
23119;SDS011;11729;50.836;4.330;2023-07-20T09:14:08;4.20;;;3.88;;
23119;SDS011;11729;50.836;4.330;2023-07-20T09:19:19;4.07;;;3.70;;
23119;SDS011;11729;50.836;4.330;2023-07-20T09:21:46;3.85;;;3.60;;
23119;SDS011;11729;50.836;4.330;2023-07-20T09:24:13;4.05;;;3.70;;
23119;SDS011;11729;50.836;4.330;2023-07-20T09:26:43;3.88;;;3.60;;
23119;SDS011;11729;50.836;4.330;2023-07-20T09:29:09;3.90;;;3.60;;
23119;SDS011;11729;50.836;4.330;2023-07-20T09:31:36;3.80;;;3.60;;
23119;SDS011;11729;50.836;4.330;2023-07-20T09:34:02;5.60;;;3.75;;
23119;SDS011;11729;50.836;4.330;2023-07-20T09:36:29;3.90;;;3.60;;
23119;SDS011;11729;50.836;4.330;2023-07-20T09:38:59;4.30;;;3.95;;
23119;SDS011;11729;50.836;4.330;2023-07-20T09:41:25;4.75;;;3.90;;
23119;SDS011;11729;50.836;4.330;2023-07-20T09:43:51;4.60;;;4.20;;
23119;SDS011;11729;50.836;4.330;2023-07-20T09:46:18;4.17;;;3.77;;
23119;SDS011;11729;50.836;4.330;2023-07-20T09:48:52;4.40;;;3.75;;
23119;SDS011;11729;50.836;4.330;2023-07-20T09:51:20;3.92;;;3.53;;
23119;SDS011;11729;50.836;4.330;2023-07-20T09:53:47;3.75;;;3.40;;
23119;SDS011;11729;50.836;4.330;2023-07-20T09:56:14;4.00;;;3.70;;
23119;SDS011;11729;50.836;4.330;2023-07-20T09:58:41;4.13;;;3.75;;
23119;SDS011;11729;50.836;4.330;2023-07-20T10:01:08;3.92;;;3.63;;
23119;SDS011;11729;50.836;4.330;2023-07-20T10:03:35;3.97;;;3.35;;
23119;SDS011;11729;50.836;4.330;2023-07-20T10:06:05;6.07;;;3.58;;
23119;SDS011;11729;50.836;4.330;2023-07-20T10:08:34;5.50;;;3.60;;
23119;SDS011;11729;50.836;4.330;2023-07-20T10:11:05;3.95;;;3.60;;
23119;SDS011;11729;50.836;4.330;2023-07-20T10:13:34;3.80;;;3.50;;
23119;SDS011;11729;50.836;4.330;2023-07-20T10:16:10;7.10;;;4.25;;
23119;SDS011;11729;50.836;4.330;2023-07-20T10:21:23;4.78;;;3.83;;
23119;SDS011;11729;50.836;4.330;2023-07-20T10:23:49;4.10;;;3.80;;
23119;SDS011;11729;50.836;4.330;2023-07-20T10:26:15;4.22;;;3.83;;
23119;SDS011;11729;50.836;4.330;2023-07-20T10:28:41;3.90;;;3.60;;
23119;SDS011;11729;50.836;4.330;2023-07-20T10:31:07;3.60;;;3.40;;
23119;SDS011;11729;50.836;4.330;2023-07-20T10:33:34;4.50;;;3.88;;
23119;SDS011;11729;50.836;4.330;2023-07-20T10:36:03;4.30;;;3.90;;
23119;SDS011;11729;50.836;4.330;2023-07-20T10:41:20;4.43;;;3.88;;
23119;SDS011;11729;50.836;4.330;2023-07-20T10:44:02;4.07;;;3.70;;
23119;SDS011;11729;50.836;4.330;2023-07-20T10:49:05;4.82;;;3.90;;
23119;SDS011;11729;50.836;4.330;2023-07-20T10:51:56;3.97;;;3.67;;
23119;SDS011;11729;50.836;4.330;2023-07-20T10:56:48;4.18;;;3.80;;
23119;SDS011;11729;50.836;4.330;2023-07-20T10:59:18;4.00;;;3.60;;
23119;SDS011;11729;50.836;4.330;2023-07-20T11:01:44;4.25;;;3.85;;
23119;SDS011;11729;50.836;4.330;2023-07-20T11:06:38;4.93;;;4.15;;
23119;SDS011;11729;50.836;4.330;2023-07-20T11:09:12;4.40;;;4.00;;
23119;SDS011;11729;50.836;4.330;2023-07-20T11:11:43;3.97;;;3.67;;
23119;SDS011;11729;50.836;4.330;2023-07-20T11:14:21;5.82;;;4.20;;
23119;SDS011;11729;50.836;4.330;2023-07-20T11:16:49;4.70;;;4.40;;
23119;SDS011;11729;50.836;4.330;2023-07-20T11:19:21;4.80;;;4.30;;
23119;SDS011;11729;50.836;4.330;2023-07-20T11:21:55;4.47;;;4.03;;
23119;SDS011;11729;50.836;4.330;2023-07-20T11:24:22;4.60;;;4.30;;
23119;SDS011;11729;50.836;4.330;2023-07-20T11:29:15;5.32;;;4.22;;
23119;SDS011;11729;50.836;4.330;2023-07-20T11:31:42;5.00;;;4.60;;
23119;SDS011;11729;50.836;4.330;2023-07-20T11:34:13;4.97;;;4.47;;
23119;SDS011;11729;50.836;4.330;2023-07-20T11:36:40;4.55;;;4.25;;
23119;SDS011;11729;50.836;4.330;2023-07-20T11:39:10;5.68;;;4.68;;
23119;SDS011;11729;50.836;4.330;2023-07-20T11:41:37;4.65;;;4.22;;
23119;SDS011;11729;50.836;4.330;2023-07-20T11:44:05;4.82;;;4.43;;
23119;SDS011;11729;50.836;4.330;2023-07-20T11:46:32;5.28;;;4.43;;
23119;SDS011;11729;50.836;4.330;2023-07-20T11:48:59;4.88;;;4.43;;
23119;SDS011;11729;50.836;4.330;2023-07-20T11:51:26;6.55;;;4.60;;
23119;SDS011;11729;50.836;4.330;2023-07-20T11:53:56;5.07;;;4.60;;
23119;SDS011;11729;50.836;4.330;2023-07-20T11:56:22;4.65;;;4.28;;
23119;SDS011;11729;50.836;4.330;2023-07-20T11:58:49;5.03;;;4.60;;
23119;SDS011;11729;50.836;4.330;2023-07-20T12:01:15;4.88;;;4.53;;
23119;SDS011;11729;50.836;4.330;2023-07-20T12:03:42;4.90;;;4.40;;
23119;SDS011;11729;50.836;4.330;2023-07-20T12:06:09;5.90;;;4.75;;
23119;SDS011;11729;50.836;4.330;2023-07-20T12:08:39;5.90;;;5.13;;
23119;SDS011;11729;50.836;4.330;2023-07-20T12:11:06;5.63;;;5.13;;
23119;SDS011;11729;50.836;4.330;2023-07-20T12:13:36;4.95;;;4.55;;
23119;SDS011;11729;50.836;4.330;2023-07-20T12:16:17;6.35;;;4.88;;
23119;SDS011;11729;50.836;4.330;2023-07-20T12:18:43;5.30;;;4.80;;
23119;SDS011;11729;50.836;4.330;2023-07-20T12:21:09;5.10;;;4.70;;
23119;SDS011;11729;50.836;4.330;2023-07-20T12:23:39;5.53;;;4.90;;
23119;SDS011;11729;50.836;4.330;2023-07-20T12:26:06;5.15;;;4.75;;
23119;SDS011;11729;50.836;4.330;2023-07-20T12:31:01;5.20;;;4.80;;
23119;SDS011;11729;50.836;4.330;2023-07-20T12:33:26;6.78;;;4.75;;
23119;SDS011;11729;50.836;4.330;2023-07-20T12:35:52;5.20;;;4.70;;
23119;SDS011;11729;50.836;4.330;2023-07-20T12:38:21;5.57;;;5.05;;
23119;SDS011;11729;50.836;4.330;2023-07-20T12:40:47;5.93;;;5.10;;
23119;SDS011;11729;50.836;4.330;2023-07-20T12:43:13;5.32;;;4.85;;
23119;SDS011;11729;50.836;4.330;2023-07-20T12:45:39;4.90;;;4.50;;
23119;SDS011;11729;50.836;4.330;2023-07-20T12:48:05;8.17;;;4.80;;
23119;SDS011;11729;50.836;4.330;2023-07-20T12:50:31;5.30;;;4.90;;
23119;SDS011;11729;50.836;4.330;2023-07-20T12:52:57;6.45;;;4.80;;
23119;SDS011;11729;50.836;4.330;2023-07-20T12:55:22;7.10;;;4.72;;
23119;SDS011;11729;50.836;4.330;2023-07-20T12:57:48;5.93;;;4.50;;
23119;SDS011;11729;50.836;4.330;2023-07-20T13:00:14;5.18;;;4.53;;
23119;SDS011;11729;50.836;4.330;2023-07-20T13:02:41;5.20;;;4.70;;
23119;SDS011;11729;50.836;4.330;2023-07-20T13:05:08;5.63;;;5.13;;
23119;SDS011;11729;50.836;4.330;2023-07-20T13:07:35;5.43;;;4.93;;
23119;SDS011;11729;50.836;4.330;2023-07-20T13:10:02;4.88;;;4.47;;
23119;SDS011;11729;50.836;4.330;2023-07-20T13:12:29;5.88;;;5.00;;
23119;SDS011;11729;50.836;4.330;2023-07-20T13:14:56;5.23;;;4.80;;
23119;SDS011;11729;50.836;4.330;2023-07-20T13:17:22;11.30;;;5.30;;
23119;SDS011;11729;50.836;4.330;2023-07-20T13:19:48;7.68;;;5.53;;
23119;SDS011;11729;50.836;4.330;2023-07-20T13:22:14;10.82;;;5.63;;
23119;SDS011;11729;50.836;4.330;2023-07-20T13:24:40;6.43;;;5.35;;
23119;SDS011;11729;50.836;4.330;2023-07-20T13:27:06;5.43;;;5.03;;
23119;SDS011;11729;50.836;4.330;2023-07-20T13:29:32;5.57;;;5.07;;
23119;SDS011;11729;50.836;4.330;2023-07-20T13:31:58;5.82;;;5.35;;
23119;SDS011;11729;50.836;4.330;2023-07-20T13:34:25;5.70;;;5.25;;
23119;SDS011;11729;50.836;4.330;2023-07-20T13:36:51;6.17;;;4.90;;
23119;SDS011;11729;50.836;4.330;2023-07-20T13:39:16;5.38;;;4.90;;
23119;SDS011;11729;50.836;4.330;2023-07-20T13:41:42;5.38;;;4.90;;
23119;SDS011;11729;50.836;4.330;2023-07-20T13:44:08;6.95;;;4.85;;
23119;SDS011;11729;50.836;4.330;2023-07-20T13:46:34;6.82;;;4.90;;
23119;SDS011;11729;50.836;4.330;2023-07-20T13:49:00;5.35;;;4.85;;
23119;SDS011;11729;50.836;4.330;2023-07-20T13:51:26;5.68;;;5.13;;
23119;SDS011;11729;50.836;4.330;2023-07-20T13:53:51;5.22;;;4.80;;
23119;SDS011;11729;50.836;4.330;2023-07-20T13:56:17;5.55;;;4.97;;
23119;SDS011;11729;50.836;4.330;2023-07-20T13:58:43;5.28;;;4.60;;
23119;SDS011;11729;50.836;4.330;2023-07-20T14:01:08;8.02;;;5.72;;
23119;SDS011;11729;50.836;4.330;2023-07-20T14:03:34;6.13;;;5.05;;
23119;SDS011;11729;50.836;4.330;2023-07-20T14:06:00;7.15;;;5.20;;
23119;SDS011;11729;50.836;4.330;2023-07-20T14:08:25;5.30;;;4.90;;
23119;SDS011;11729;50.836;4.330;2023-07-20T14:10:51;4.63;;;4.32;;
23119;SDS011;11729;50.836;4.330;2023-07-20T14:13:16;5.05;;;4.65;;
23119;SDS011;11729;50.836;4.330;2023-07-20T14:15:42;5.25;;;4.72;;
23119;SDS011;11729;50.836;4.330;2023-07-20T14:18:08;7.45;;;4.93;;
23119;SDS011;11729;50.836;4.330;2023-07-20T14:20:33;5.90;;;4.78;;
23119;SDS011;11729;50.836;4.330;2023-07-20T14:23:00;4.93;;;4.53;;
23119;SDS011;11729;50.836;4.330;2023-07-20T14:25:25;4.85;;;4.45;;
23119;SDS011;11729;50.836;4.330;2023-07-20T14:27:51;5.03;;;4.53;;
23119;SDS011;11729;50.836;4.330;2023-07-20T14:30:17;5.40;;;4.90;;
23119;SDS011;11729;50.836;4.330;2023-07-20T14:32:42;5.72;;;5.20;;
23119;SDS011;11729;50.836;4.330;2023-07-20T14:35:08;6.30;;;5.35;;
23119;SDS011;11729;50.836;4.330;2023-07-20T14:37:34;5.53;;;5.10;;
23119;SDS011;11729;50.836;4.330;2023-07-20T14:39:59;5.93;;;5.00;;
23119;SDS011;11729;50.836;4.330;2023-07-20T14:42:25;10.05;;;5.20;;
23119;SDS011;11729;50.836;4.330;2023-07-20T14:44:51;5.15;;;4.75;;
23119;SDS011;11729;50.836;4.330;2023-07-20T14:47:17;6.18;;;4.85;;
23119;SDS011;11729;50.836;4.330;2023-07-20T14:49:43;6.47;;;4.72;;
23119;SDS011;11729;50.836;4.330;2023-07-20T14:52:09;5.38;;;4.88;;
23119;SDS011;11729;50.836;4.330;2023-07-20T14:54:35;4.80;;;4.38;;
23119;SDS011;11729;50.836;4.330;2023-07-20T14:57:00;7.78;;;5.50;;
23119;SDS011;11729;50.836;4.330;2023-07-20T14:59:27;8.30;;;5.10;;
23119;SDS011;11729;50.836;4.330;2023-07-20T15:01:53;5.60;;;5.13;;
23119;SDS011;11729;50.836;4.330;2023-07-20T15:04:19;5.53;;;5.03;;
23119;SDS011;11729;50.836;4.330;2023-07-20T15:06:44;6.00;;;5.10;;
23119;SDS011;11729;50.836;4.330;2023-07-20T15:09:10;6.18;;;5.57;;